Time;durP1;ratioP1;P1;durP2;ratioP2;P2;SDS_P1;SDS_P2;PMS_P1;PMS_P2;Temp;Humidity;BMP_temperature;BMP_pressure;BME280_temperature;BME280_humidity;BME280_pressure;Samples;Min_cycle;Max_cycle;Signal;HPM_P1;HPM_P2
2024/02/02 00:01:30;;;;;;;10.88;4.35;;;5.10;99.90;;;;;;5012689;28;20025;-41
2024/02/02 00:03:56;;;;;;;16.80;5.70;;;5.10;99.90;;;;;;5012239;28;20022;-39
2024/02/02 00:06:21;;;;;;;11.32;5.13;;;4.90;99.90;;;;;;5012894;28;20033;-39
2024/02/02 00:08:47;;;;;;;11.93;5.35;;;4.80;99.90;;;;;;5012433;28;20025;-41
2024/02/02 00:11:12;;;;;;;11.70;4.85;;;4.70;99.90;;;;;;5012342;28;20026;-39
2024/02/02 00:13:38;;;;;;;24.70;5.85;;;4.60;99.90;;;;;;5011869;28;20487;-39
2024/02/02 00:16:04;;;;;;;15.60;5.55;;;4.50;99.90;;;;;;5012379;28;20061;-43
2024/02/02 00:18:29;;;;;;;12.00;5.35;;;4.40;99.90;;;;;;5013532;28;20485;-41
2024/02/02 00:20:56;;;;;;;20.67;7.00;;;4.20;99.90;;;;;;5013319;28;20103;-42
2024/02/02 00:23:22;;;;;;;16.80;6.10;;;4.10;99.90;;;;;;5012789;28;20022;-42
2024/02/02 00:25:47;;;;;;;16.67;5.93;;;4.00;99.90;;;;;;5012145;28;20030;-40
2024/02/02 00:28:13;;;;;;;11.40;5.15;;;4.00;99.90;;;;;;5011764;28;20026;-39
2024/02/02 00:30:40;;;;;;;17.02;6.18;;;3.90;99.90;;;;;;5012108;28;20073;-39
2024/02/02 00:33:06;;;;;;;22.92;5.95;;;4.00;99.90;;;;;;5012231;28;20021;-39
2024/02/02 00:35:32;;;;;;;22.13;5.95;;;3.90;99.90;;;;;;5013468;28;20108;-41
2024/02/02 00:37:58;;;;;;;14.43;6.50;;;3.90;99.90;;;;;;5012143;28;20053;-42
2024/02/02 00:40:24;;;;;;;16.25;5.70;;;4.00;99.90;;;;;;5012003;28;20025;-39
2024/02/02 00:42:50;;;;;;;13.70;6.80;;;4.00;99.90;;;;;;5011752;28;20040;-39
2024/02/02 00:45:15;;;;;;;20.75;5.60;;;4.00;99.90;;;;;;5012059;28;20477;-39
2024/02/02 00:47:41;;;;;;;15.25;5.35;;;4.00;99.90;;;;;;5012077;28;20487;-42
2024/02/02 00:50:07;;;;;;;15.80;5.78;;;3.90;99.90;;;;;;5011900;28;20145;-39
2024/02/02 00:52:33;;;;;;;12.55;5.53;;;3.90;99.90;;;;;;5012323;28;20022;-42
2024/02/02 00:54:59;;;;;;;12.80;5.20;;;3.80;99.90;;;;;;5014568;28;20022;-45
2024/02/02 00:57:25;;;;;;;14.55;5.35;;;3.90;99.90;;;;;;5014142;28;20026;-40
2024/02/02 00:59:52;;;;;;;31.08;5.40;;;4.00;99.90;;;;;;5013628;28;20029;-43
2024/02/02 01:02:18;;;;;;;18.02;7.35;;;3.90;99.90;;;;;;5013789;28;20028;-40
2024/02/02 01:04:44;;;;;;;14.07;5.40;;;3.90;99.90;;;;;;5013073;28;20469;-41
2024/02/02 01:07:09;;;;;;;14.27;5.03;;;4.00;99.90;;;;;;5012090;28;20038;-40
2024/02/02 01:09:36;;;;;;;7.10;4.15;;;4.00;99.90;;;;;;5012559;28;20491;-43
2024/02/02 01:12:02;;;;;;;18.77;5.38;;;3.90;99.90;;;;;;5011898;28;20022;-40
2024/02/02 01:14:27;;;;;;;14.43;5.65;;;3.80;99.90;;;;;;5013471;28;20029;-43
2024/02/02 01:16:53;;;;;;;8.43;4.35;;;3.90;99.90;;;;;;5012768;28;20557;-40
2024/02/02 01:19:19;;;;;;;20.73;5.35;;;3.90;99.90;;;;;;5013115;28;20026;-41
2024/02/02 01:21:45;;;;;;;11.68;5.28;;;3.90;99.90;;;;;;5013396;28;20285;-40
2024/02/02 01:24:10;;;;;;;17.33;5.70;;;3.90;99.90;;;;;;5011975;28;20060;-41
2024/02/02 01:26:36;;;;;;;10.85;5.15;;;3.90;99.90;;;;;;5012780;28;20491;-41
2024/02/02 01:29:01;;;;;;;10.77;5.25;;;3.90;99.90;;;;;;5012294;28;20022;-44
2024/02/02 01:31:27;;;;;;;16.92;6.32;;;3.90;99.90;;;;;;5012503;28;20030;-40
2024/02/02 01:33:53;;;;;;;14.25;5.25;;;3.80;99.90;;;;;;5011715;28;20018;-45
2024/02/02 01:36:18;;;;;;;15.32;6.18;;;3.80;99.90;;;;;;5011287;28;20061;-41
2024/02/02 01:38:50;;;;;;;23.63;6.00;;;3.80;99.90;;;;;;5012199;28;20100;-41
2024/02/02 01:41:16;;;;;;;20.55;5.97;;;3.70;99.90;;;;;;5015382;28;20053;-45
2024/02/02 01:43:41;;;;;;;18.35;5.25;;;3.70;99.90;;;;;;5014855;28;20030;-41
2024/02/02 01:46:07;;;;;;;15.25;6.15;;;3.70;99.90;;;;;;5016161;28;20044;-41
2024/02/02 01:48:32;;;;;;;17.70;6.22;;;3.60;99.90;;;;;;4997804;28;20034;-40
2024/02/02 01:50:58;;;;;;;21.48;6.80;;;3.60;99.90;;;;;;5014949;28;20030;-42
2024/02/02 01:53:23;;;;;;;17.45;7.15;;;3.50;99.90;;;;;;5014444;28;20025;-42
2024/02/02 01:55:49;;;;;;;24.40;7.93;;;3.50;99.90;;;;;;5014762;28;20098;-42
2024/02/02 01:58:14;;;;;;;20.80;6.22;;;3.60;99.90;;;;;;5014331;28;20022;-37
2024/02/02 02:00:40;;;;;;;22.00;7.72;;;3.60;99.90;;;;;;5014640;28;20010;-43
2024/02/02 02:03:05;;;;;;;14.07;6.45;;;3.70;99.90;;;;;;5014395;28;20554;-43
2024/02/02 02:05:31;;;;;;;24.33;6.15;;;3.70;99.90;;;;;;5014618;28;20136;-43
2024/02/02 02:07:57;;;;;;;25.00;6.07;;;3.90;99.90;;;;;;5014453;28;20030;-41
2024/02/02 02:10:24;;;;;;;14.35;5.82;;;3.80;99.90;;;;;;5014399;28;20137;-38
2024/02/02 02:12:50;;;;;;;18.88;5.78;;;3.90;99.90;;;;;;5014444;28;20026;-44
2024/02/02 02:15:16;;;;;;;17.92;6.40;;;3.80;99.90;;;;;;5015034;28;20511;-40
2024/02/02 02:17:41;;;;;;;15.88;6.40;;;3.80;99.90;;;;;;5014902;28;20045;-41
2024/02/02 02:20:11;;;;;;;22.80;6.00;;;3.90;99.90;;;;;;5014453;28;20058;-45
2024/02/02 02:22:37;;;;;;;17.75;6.05;;;3.90;99.90;;;;;;5014386;28;20052;-42
2024/02/02 02:25:03;;;;;;;18.02;6.00;;;3.90;99.90;;;;;;5014069;28;20026;-43
2024/02/02 02:27:28;;;;;;;16.70;5.95;;;3.90;99.90;;;;;;5014667;28;20041;-41
2024/02/02 02:29:54;;;;;;;16.23;7.35;;;3.90;99.90;;;;;;5014079;28;20092;-43
2024/02/02 02:32:19;;;;;;;15.30;5.82;;;3.90;99.90;;;;;;5014106;28;20091;-42
2024/02/02 02:34:45;;;;;;;13.65;7.38;;;3.90;99.90;;;;;;5014042;28;20026;-46
2024/02/02 02:37:10;;;;;;;12.27;6.25;;;3.90;99.90;;;;;;5014203;28;20026;-46
2024/02/02 02:39:36;;;;;;;16.42;7.18;;;3.90;99.90;;;;;;5013911;28;20025;-41
2024/02/02 02:42:01;;;;;;;13.43;6.47;;;4.00;99.90;;;;;;5013999;28;20119;-40
2024/02/02 02:44:27;;;;;;;17.65;6.85;;;3.90;99.90;;;;;;5013716;28;20514;-43
2024/02/02 02:46:52;;;;;;;18.25;5.85;;;4.00;99.90;;;;;;5013943;28;20022;-41
2024/02/02 02:49:18;;;;;;;17.88;6.85;;;3.90;99.90;;;;;;5013572;28;20052;-39
2024/02/02 02:51:44;;;;;;;15.15;6.32;;;3.90;99.90;;;;;;5013625;28;20510;-40
2024/02/02 02:54:09;;;;;;;20.10;6.93;;;4.00;99.90;;;;;;5013480;28;20119;-40
2024/02/02 02:56:35;;;;;;;14.68;6.38;;;4.00;99.90;;;;;;5013624;28;20176;-43
2024/02/02 02:59:01;;;;;;;10.00;7.07;;;4.10;99.90;;;;;;5013568;28;20254;-43
2024/02/02 03:01:26;;;;;;;10.48;5.13;;;4.20;99.90;;;;;;5013537;28;20026;-40
2024/02/02 03:03:52;;;;;;;18.20;6.40;;;4.20;99.90;;;;;;5013137;28;20518;-41
2024/02/02 03:06:17;;;;;;;16.52;7.15;;;4.20;99.90;;;;;;5013307;28;20040;-42
2024/02/02 03:08:43;;;;;;;11.98;6.07;;;4.40;99.90;;;;;;5013425;28;20036;-45
2024/02/02 03:11:08;;;;;;;15.27;5.68;;;4.50;99.90;;;;;;5013568;28;20109;-44
2024/02/02 03:13:34;;;;;;;8.80;5.13;;;4.60;99.90;;;;;;5012988;28;20018;-41
2024/02/02 03:15:59;;;;;;;21.02;6.18;;;4.50;99.90;;;;;;5012047;28;20033;-42
2024/02/02 03:18:25;;;;;;;22.40;6.20;;;4.50;99.90;;;;;;5013196;28;20025;-43
2024/02/02 03:20:50;;;;;;;14.75;5.35;;;4.40;99.90;;;;;;5013108;28;20025;-42
2024/02/02 03:23:16;;;;;;;14.35;5.72;;;4.30;99.90;;;;;;5012996;28;20030;-44
2024/02/02 03:25:41;;;;;;;19.83;6.22;;;4.20;99.90;;;;;;5013184;28;20049;-41
2024/02/02 03:28:07;;;;;;;18.73;6.53;;;4.30;99.90;;;;;;5012802;28;20030;-41
2024/02/02 03:30:32;;;;;;;11.00;6.22;;;4.30;99.90;;;;;;5013748;28;20072;-42
2024/02/02 03:32:58;;;;;;;24.08;6.75;;;4.30;99.90;;;;;;5014239;28;20037;-40
2024/02/02 03:35:24;;;;;;;13.63;7.22;;;4.20;99.90;;;;;;4996651;28;20029;-39
2024/02/02 03:37:49;;;;;;;13.40;5.82;;;4.20;99.90;;;;;;5013899;28;20026;-42
2024/02/02 03:40:15;;;;;;;11.57;6.18;;;4.20;99.90;;;;;;5014364;28;20026;-39
2024/02/02 03:42:40;;;;;;;17.77;6.38;;;4.20;99.90;;;;;;5013887;28;20036;-39
2024/02/02 03:45:06;;;;;;;20.73;6.20;;;4.20;99.90;;;;;;5013362;28;20513;-43
2024/02/02 03:47:32;;;;;;;15.63;6.28;;;4.20;99.90;;;;;;5012609;28;20034;-41
2024/02/02 03:49:58;;;;;;;14.75;6.43;;;4.20;99.90;;;;;;5012458;28;20026;-43
2024/02/02 03:52:24;;;;;;;13.63;5.20;;;4.10;99.90;;;;;;5012448;28;20068;-41
2024/02/02 03:54:52;;;;;;;16.98;6.38;;;4.10;99.90;;;;;;5012374;28;20022;-42
2024/02/02 03:57:18;;;;;;;14.48;6.10;;;4.10;99.90;;;;;;5012469;28;20571;-40
2024/02/02 03:59:44;;;;;;;18.05;6.68;;;4.10;99.90;;;;;;5012149;28;20116;-43
2024/02/02 04:02:09;;;;;;;16.02;6.22;;;4.10;99.90;;;;;;5011875;28;20072;-44
2024/02/02 04:04:35;;;;;;;18.70;6.45;;;4.20;99.90;;;;;;5012909;28;20035;-43
2024/02/02 04:07:01;;;;;;;15.65;6.57;;;4.20;99.90;;;;;;5012924;28;20037;-43
2024/02/02 04:09:27;;;;;;;18.17;7.30;;;4.30;99.90;;;;;;5012365;28;20022;-40
2024/02/02 04:11:53;;;;;;;16.02;7.15;;;4.20;99.90;;;;;;5012348;28;20026;-42
2024/02/02 04:14:18;;;;;;;19.33;6.40;;;4.20;99.90;;;;;;5012015;28;20030;-43
2024/02/02 04:16:44;;;;;;;15.52;6.50;;;4.20;99.90;;;;;;5012113;28;20064;-42
2024/02/02 04:19:14;;;;;;;17.70;6.72;;;4.10;99.90;;;;;;5012296;28;20083;-40
2024/02/02 04:21:40;;;;;;;12.60;6.28;;;4.00;99.90;;;;;;5012081;28;20179;-41
2024/02/02 04:24:06;;;;;;;12.90;6.88;;;4.10;99.90;;;;;;5011792;28;20026;-44
2024/02/02 04:26:32;;;;;;;20.55;6.13;;;4.10;99.90;;;;;;5011893;28;20495;-43
2024/02/02 04:28:57;;;;;;;14.23;6.95;;;4.20;99.90;;;;;;5011929;28;20509;-40
2024/02/02 04:31:23;;;;;;;11.57;5.72;;;4.20;99.90;;;;;;5012006;28;20029;-41
2024/02/02 04:33:48;;;;;;;18.83;6.95;;;4.30;99.90;;;;;;5011629;28;20022;-43
2024/02/02 04:36:15;;;;;;;16.02;5.90;;;4.40;99.90;;;;;;5011868;28;20121;-39
2024/02/02 04:38:41;;;;;;;12.70;6.40;;;4.50;99.90;;;;;;5011839;28;20448;-41
2024/02/02 04:41:07;;;;;;;15.45;6.60;;;4.60;99.90;;;;;;5012291;28;20026;-41
2024/02/02 04:43:32;;;;;;;15.75;6.57;;;4.80;99.90;;;;;;5011573;28;20025;-40
2024/02/02 04:45:58;;;;;;;12.52;6.05;;;4.90;99.90;;;;;;5011741;28;20202;-41
2024/02/02 04:48:23;;;;;;;12.68;7.15;;;4.90;99.90;;;;;;5011896;28;20503;-42
2024/02/02 04:50:49;;;;;;;13.95;5.85;;;4.90;99.90;;;;;;5011618;28;20029;-44
2024/02/02 04:53:14;;;;;;;12.13;5.93;;;4.80;99.90;;;;;;5011309;28;20038;-42
2024/02/02 04:55:40;;;;;;;16.60;6.78;;;4.80;99.90;;;;;;5011594;28;20053;-44
2024/02/02 04:58:06;;;;;;;15.23;6.60;;;4.80;99.90;;;;;;5011293;28;20507;-41
2024/02/02 05:00:31;;;;;;;19.38;6.50;;;4.80;99.90;;;;;;5011683;28;20026;-44
2024/02/02 05:02:57;;;;;;;17.35;8.60;;;4.90;99.90;;;;;;5011238;28;20030;-43
2024/02/02 05:05:22;;;;;;;14.48;7.55;;;4.90;99.90;;;;;;5011661;28;20109;-41
2024/02/02 05:07:48;;;;;;;13.98;6.50;;;5.00;99.90;;;;;;5011370;28;20061;-41
2024/02/02 05:10:13;;;;;;;17.80;7.32;;;5.10;99.90;;;;;;5011379;28;20443;-41
2024/02/02 05:12:39;;;;;;;21.63;7.53;;;5.00;99.90;;;;;;5011275;28;20025;-41
2024/02/02 05:15:04;;;;;;;20.23;7.03;;;4.90;99.90;;;;;;5014106;28;20049;-41
2024/02/02 05:17:30;;;;;;;25.35;7.95;;;4.80;99.90;;;;;;5015480;28;20030;-42
2024/02/02 05:19:55;;;;;;;15.68;6.63;;;4.90;99.90;;;;;;5015295;28;20022;-42
2024/02/02 05:22:21;;;;;;;19.23;7.60;;;4.80;99.90;;;;;;5015426;28;20037;-43
2024/02/02 05:24:48;;;;;;;15.15;7.68;;;4.80;99.90;;;;;;5015080;28;20038;-42
2024/02/02 05:27:14;;;;;;;18.60;7.82;;;4.80;99.90;;;;;;5015015;28;20109;-40
2024/02/02 05:29:39;;;;;;;20.55;9.68;;;4.80;99.90;;;;;;5015220;28;20156;-42
2024/02/02 05:32:05;;;;;;;20.38;8.45;;;4.70;99.90;;;;;;5015130;28;20105;-43
2024/02/02 05:34:31;;;;;;;26.05;8.13;;;4.80;99.90;;;;;;5014832;28;20030;-41
2024/02/02 05:36:56;;;;;;;19.92;7.50;;;4.70;99.90;;;;;;5015118;28;20026;-40
2024/02/02 05:39:22;;;;;;;19.52;6.93;;;4.50;99.90;;;;;;5014935;28;20403;-43
2024/02/02 05:41:47;;;;;;;14.18;7.93;;;4.50;99.90;;;;;;4997347;28;20145;-40
2024/02/02 05:44:13;;;;;;;22.27;8.05;;;4.50;99.90;;;;;;5014727;28;20029;-42
2024/02/02 05:46:39;;;;;;;15.75;8.30;;;4.30;99.90;;;;;;5015188;28;20036;-41
2024/02/02 05:49:05;;;;;;;18.63;8.02;;;4.30;99.90;;;;;;5016274;28;20034;-41
2024/02/02 05:51:30;;;;;;;15.85;7.30;;;4.30;99.90;;;;;;5015602;28;20022;-42
2024/02/02 05:53:56;;;;;;;15.07;6.63;;;4.30;99.90;;;;;;5015066;28;20025;-41
2024/02/02 05:56:21;;;;;;;19.15;7.80;;;4.30;99.90;;;;;;4997021;28;20499;-43
2024/02/02 05:58:47;;;;;;;13.68;7.38;;;4.30;99.90;;;;;;5014534;28;20075;-41
2024/02/02 06:01:13;;;;;;;13.02;7.47;;;4.30;99.90;;;;;;5014876;28;20034;-39
2024/02/02 06:03:39;;;;;;;11.85;7.13;;;4.30;99.90;;;;;;5014657;28;20025;-42
2024/02/02 06:06:04;;;;;;;19.02;7.47;;;4.40;99.90;;;;;;5014440;28;20021;-43
2024/02/02 06:08:30;;;;;;;15.07;6.97;;;4.40;99.90;;;;;;4996718;28;20058;-41
2024/02/02 06:10:55;;;;;;;13.10;7.68;;;4.50;99.90;;;;;;5014395;28;20121;-40
2024/02/02 06:13:21;;;;;;;18.75;8.80;;;4.40;99.90;;;;;;5014139;28;20631;-42
2024/02/02 06:15:46;;;;;;;19.27;8.57;;;4.40;99.90;;;;;;5014404;28;20026;-42
2024/02/02 06:18:12;;;;;;;16.15;8.02;;;4.40;99.90;;;;;;5014154;28;20030;-42
2024/02/02 06:20:37;;;;;;;19.27;7.93;;;4.40;99.90;;;;;;5014343;28;20487;-42
2024/02/02 06:23:03;;;;;;;21.63;7.45;;;4.40;99.90;;;;;;5014072;28;20491;-42
2024/02/02 06:25:28;;;;;;;16.58;7.97;;;4.40;99.90;;;;;;5013638;28;20105;-42
2024/02/02 06:27:54;;;;;;;24.17;8.50;;;4.50;99.90;;;;;;5014335;28;20030;-40
2024/02/02 06:30:19;;;;;;;20.15;7.65;;;4.50;99.90;;;;;;5013144;28;20026;-41
2024/02/02 06:32:49;;;;;;;17.50;7.80;;;4.50;99.90;;;;;;5014631;28;20030;-40
2024/02/02 06:35:15;;;;;;;19.48;8.30;;;4.40;99.90;;;;;;5014063;28;20122;-42
2024/02/02 06:37:40;;;;;;;14.40;7.20;;;4.40;99.90;;;;;;5013824;28;20081;-40
2024/02/02 06:40:06;;;;;;;13.13;7.28;;;4.50;99.90;;;;;;5014064;28;20030;-39
2024/02/02 06:42:32;;;;;;;15.32;8.50;;;4.50;99.90;;;;;;5013819;28;20029;-40
2024/02/02 06:44:57;;;;;;;15.52;8.80;;;4.50;99.90;;;;;;5013738;28;20049;-43
2024/02/02 06:47:23;;;;;;;15.63;7.25;;;4.40;99.90;;;;;;5013748;28;20026;-41
2024/02/02 06:49:49;;;;;;;17.02;7.15;;;4.40;99.90;;;;;;5013692;28;20142;-40
2024/02/02 06:52:16;;;;;;;21.77;7.72;;;4.40;99.90;;;;;;5013573;28;20022;-38
2024/02/02 06:54:42;;;;;;;17.60;7.93;;;4.50;99.90;;;;;;5014010;28;20025;-41
2024/02/02 06:57:08;;;;;;;19.50;7.25;;;4.40;99.90;;;;;;5013541;28;20036;-42
2024/02/02 06:59:34;;;;;;;14.35;7.18;;;4.40;99.90;;;;;;5013311;28;20026;-43
2024/02/02 07:01:59;;;;;;;16.60;7.95;;;4.40;99.90;;;;;;5013638;28;20400;-41
2024/02/02 07:04:25;;;;;;;14.40;7.60;;;4.40;99.90;;;;;;5013190;28;20038;-41
2024/02/02 07:06:52;;;;;;;19.20;7.72;;;4.40;99.90;;;;;;5013742;28;20053;-44
2024/02/02 07:09:30;;;;;;;18.88;7.25;;;4.40;99.90;;;;;;5013278;28;20558;-42
2024/02/02 07:12:06;;;;;;;22.55;6.78;;;4.40;99.90;;;;;;5013589;28;20076;-40
2024/02/02 07:14:48;;;;;;;16.42;7.50;;;4.40;99.90;;;;;;5013041;28;20442;-42
2024/02/02 07:17:39;;;;;;;14.02;7.13;;;4.40;99.90;;;;;;5013311;28;20032;-40
2024/02/02 07:20:24;;;;;;;21.52;8.98;;;4.40;99.90;;;;;;5013275;28;20022;-44
2024/02/02 07:22:52;;;;;;;19.02;7.32;;;4.40;99.90;;;;;;5012813;28;20033;-41
2024/02/02 07:25:19;;;;;;;17.60;7.35;;;4.40;99.90;;;;;;5032271;28;20037;-39
2024/02/02 07:28:05;;;;;;;16.95;6.50;;;4.40;99.90;;;;;;5013084;28;20073;-41
2024/02/02 07:30:40;;;;;;;16.50;9.20;;;4.40;99.90;;;;;;5025446;28;20037;-40
2024/02/02 07:33:34;;;;;;;31.83;8.43;;;4.40;99.90;;;;;;5029461;28;20026;-40
2024/02/02 07:36:00;;;;;;;16.98;6.25;;;4.40;99.90;;;;;;5033414;28;20265;-41
2024/02/02 07:38:46;;;;;;;16.85;7.28;;;4.40;99.90;;;;;;5031522;28;20495;-41
2024/02/02 07:41:15;;;;;;;16.85;6.80;;;4.40;99.90;;;;;;5014223;28;20026;-46
2024/02/02 07:43:41;;;;;;;15.48;6.40;;;4.40;99.90;;;;;;5019711;28;20037;-40
2024/02/02 07:46:07;;;;;;;18.50;7.05;;;4.40;99.90;;;;;;5003246;28;20042;-40
2024/02/02 07:48:34;;;;;;;13.90;6.85;;;4.50;99.90;;;;;;5013460;28;20029;-44
2024/02/02 07:50:59;;;;;;;17.17;7.35;;;4.50;99.90;;;;;;5030726;28;20029;-43
2024/02/02 07:53:25;;;;;;;15.68;6.57;;;4.60;99.90;;;;;;5025823;28;20033;-37
2024/02/02 07:55:51;;;;;;;13.93;6.32;;;4.60;99.90;;;;;;5033017;28;20018;-42
2024/02/02 07:58:17;;;;;;;21.50;7.60;;;4.70;99.90;;;;;;5023143;28;20156;-39
2024/02/02 08:00:43;;;;;;;17.05;7.55;;;4.70;99.90;;;;;;5018668;28;20112;-41
2024/02/02 08:03:09;;;;;;;16.40;7.80;;;4.80;99.90;;;;;;5031626;28;20152;-46
2024/02/02 08:05:37;;;;;;;17.90;7.03;;;4.80;99.90;;;;;;5030590;28;20426;-45
2024/02/02 08:08:04;;;;;;;12.07;6.90;;;4.90;99.90;;;;;;5020411;28;20056;-40
2024/02/02 08:10:29;;;;;;;10.65;6.45;;;4.90;99.90;;;;;;5012224;28;20037;-41
2024/02/02 08:12:55;;;;;;;13.50;7.75;;;4.90;99.90;;;;;;5011924;28;20117;-39
2024/02/02 08:15:21;;;;;;;15.25;6.65;;;5.00;99.90;;;;;;5012189;28;20026;-39
2024/02/02 08:17:46;;;;;;;13.80;7.28;;;4.90;99.90;;;;;;5012171;28;20041;-41
2024/02/02 08:20:13;;;;;;;13.50;8.02;;;5.10;99.90;;;;;;5012138;28;20399;-40
2024/02/02 08:22:38;;;;;;;21.50;8.45;;;5.10;99.90;;;;;;5012293;28;20028;-41
2024/02/02 08:25:04;;;;;;;18.15;7.43;;;5.10;99.90;;;;;;5012109;28;20105;-40
2024/02/02 08:27:29;;;;;;;12.38;6.68;;;5.10;99.90;;;;;;5011916;28;20026;-40
2024/02/02 08:29:55;;;;;;;15.15;7.60;;;5.20;99.90;;;;;;5012060;28;20030;-42
2024/02/02 08:32:21;;;;;;;16.90;8.38;;;5.20;99.90;;;;;;5011780;28;20041;-39
2024/02/02 08:34:46;;;;;;;26.38;7.82;;;5.20;99.90;;;;;;5011813;28;20033;-36
2024/02/02 08:37:12;;;;;;;12.05;7.03;;;5.30;99.90;;;;;;5012276;28;20101;-41
2024/02/02 08:39:37;;;;;;;20.58;8.65;;;5.20;99.90;;;;;;5012397;28;20029;-42
2024/02/02 08:42:11;;;;;;;16.70;8.85;;;5.20;99.90;;;;;;5012308;28;20022;-38
2024/02/02 08:44:36;;;;;;;20.20;7.85;;;5.20;99.90;;;;;;5011765;28;20418;-40
2024/02/02 08:47:02;;;;;;;14.25;8.30;;;5.20;99.90;;;;;;4993979;28;20026;-43
2024/02/02 08:49:53;;;;;;;19.83;10.13;;;5.30;99.90;;;;;;5011350;28;20029;-40
2024/02/02 08:52:35;;;;;;;15.85;8.85;;;5.30;99.90;;;;;;5012374;28;20485;-40
2024/02/02 08:55:04;;;;;;;17.02;8.55;;;5.40;99.90;;;;;;5011836;28;20018;-41
2024/02/02 08:57:56;;;;;;;15.98;8.02;;;5.50;99.90;;;;;;5011693;28;20133;-40
2024/02/02 09:00:32;;;;;;;19.88;9.60;;;5.60;99.90;;;;;;5000486;28;20041;-40
2024/02/02 09:03:22;;;;;;;17.33;10.40;;;5.60;99.90;;;;;;5024734;28;20117;-41
2024/02/02 09:05:51;;;;;;;17.90;8.93;;;5.60;99.90;;;;;;5020183;28;20029;-41
2024/02/02 09:08:16;;;;;;;18.45;10.43;;;5.60;99.90;;;;;;5032056;28;20025;-42
2024/02/02 09:10:44;;;;;;;20.05;9.45;;;5.50;99.90;;;;;;5008847;28;20018;-42
2024/02/02 09:13:24;;;;;;;20.88;9.93;;;5.60;99.90;;;;;;5015053;28;20499;-41
2024/02/02 09:15:50;;;;;;;21.80;10.02;;;5.60;99.90;;;;;;5014725;28;20030;-40
2024/02/02 09:18:36;;;;;;;25.25;10.15;;;5.70;99.90;;;;;;5011951;28;20103;-43
2024/02/02 09:21:03;;;;;;;17.77;9.40;;;5.80;99.90;;;;;;5022692;28;20033;-42
2024/02/02 09:23:32;;;;;;;17.83;9.63;;;6.00;99.90;;;;;;5010021;28;20038;-43
2024/02/02 09:25:57;;;;;;;19.50;9.48;;;6.10;99.90;;;;;;5025556;28;20505;-45
2024/02/02 09:28:28;;;;;;;19.40;11.07;;;6.10;99.90;;;;;;5031739;28;20064;-41
2024/02/02 09:30:58;;;;;;;24.48;9.93;;;6.50;99.90;;;;;;5032006;28;20441;-41
2024/02/02 09:33:43;;;;;;;15.52;8.85;;;7.40;99.90;;;;;;5030556;28;20491;-41
2024/02/02 09:36:10;;;;;;;14.55;8.55;;;8.60;99.90;;;;;;5031100;28;20037;-41
2024/02/02 09:38:36;;;;;;;10.68;7.63;;;9.10;99.90;;;;;;5031029;28;20099;-45
2024/02/02 09:41:05;;;;;;;11.65;7.40;;;10.40;99.90;;;;;;5031467;28;20026;-41
2024/02/02 09:43:31;;;;;;;14.48;7.85;;;10.70;99.90;;;;;;5030753;28;20389;-41
2024/02/02 09:46:22;;;;;;;15.60;8.23;;;11.20;99.90;;;;;;5030274;28;20021;-41
2024/02/02 09:48:59;;;;;;;12.23;8.20;;;11.70;99.90;;;;;;5018935;28;20044;-41
2024/02/02 09:52:10;;;;;;;16.85;7.63;;;12.10;99.90;;;;;;5029040;28;20117;-42
2024/02/02 09:54:50;;;;;;;22.83;8.90;;;12.60;99.90;;;;;;5011682;28;20041;-42
2024/02/02 09:57:35;;;;;;;13.68;7.35;;;12.70;99.90;;;;;;5011965;28;20058;-41
2024/02/02 10:00:26;;;;;;;15.60;8.07;;;12.90;99.90;;;;;;5011726;28;20449;-44
2024/02/02 10:03:30;;;;;;;19.52;8.27;;;12.80;99.90;;;;;;5018421;28;20033;-44
2024/02/02 10:06:15;;;;;;;15.52;8.55;;;12.40;99.90;;;;;;5032479;28;20025;-41
2024/02/02 10:09:17;;;;;;;16.02;8.93;;;12.00;99.90;;;;;;5034334;28;20086;-41
2024/02/02 10:12:01;;;;;;;18.23;8.90;;;11.60;99.90;;;;;;4997963;28;20033;-44
2024/02/02 10:14:39;;;;;;;16.45;8.93;;;11.50;99.90;;;;;;5032233;28;20497;-41
2024/02/02 10:17:26;;;;;;;19.55;8.00;;;11.00;99.90;;;;;;5016313;28;20076;-38
2024/02/02 10:20:14;;;;;;;20.92;11.07;;;10.90;99.90;;;;;;5033797;28;20026;-40
2024/02/02 10:23:00;;;;;;;21.50;9.57;;;10.70;99.90;;;;;;5033805;28;20109;-42
2024/02/02 10:25:50;;;;;;;20.38;9.50;;;10.60;99.90;;;;;;5034392;28;20032;-39
2024/02/02 10:28:18;;;;;;;19.45;10.15;;;10.70;99.90;;;;;;5040189;28;20445;-40
2024/02/02 10:31:01;;;;;;;15.13;7.43;;;10.80;99.90;;;;;;5053619;28;20031;-40
2024/02/02 10:33:57;;;;;;;19.38;7.88;;;11.10;99.90;;;;;;5054064;28;20047;-42
2024/02/02 10:36:40;;;;;;;18.58;7.43;;;11.20;99.90;;;;;;5031896;28;20064;-40
2024/02/02 10:39:20;;;;;;;19.25;8.77;;;10.80;99.90;;;;;;5027685;28;20080;-43
2024/02/02 10:42:08;;;;;;;20.83;7.90;;;10.80;99.90;;;;;;5020385;28;20032;-41
2024/02/02 10:45:02;;;;;;;18.70;7.68;;;10.60;99.90;;;;;;5013678;28;20160;-41
2024/02/02 10:48:05;;;;;;;27.20;8.43;;;10.60;99.90;;;;;;5023787;28;20037;-36
2024/02/02 10:50:39;;;;;;;28.70;8.30;;;10.70;99.90;;;;;;5033450;28;20033;-44
2024/02/02 10:53:51;;;;;;;31.55;15.27;;;10.70;99.90;;;;;;5033065;28;20025;-41
2024/02/02 10:56:50;;;;;;;66.15;36.55;;;10.50;99.90;;;;;;4915020;29;20211;-39
2024/02/02 10:59:52;;;;;;;24.20;9.23;;;10.40;99.90;;;;;;4898299;29;20028;-41
2024/02/02 11:02:29;;;;;;;19.95;7.40;;;10.30;99.90;;;;;;5019061;28;20038;-41
2024/02/02 11:05:10;;;;;;;17.23;7.65;;;10.20;99.90;;;;;;5033249;28;20098;-39
2024/02/02 11:07:55;;;;;;;23.80;7.97;;;10.20;99.90;;;;;;5026584;28;20071;-41
2024/02/02 11:10:42;;;;;;;20.73;7.80;;;10.00;99.90;;;;;;5023067;28;20317;-41
2024/02/02 11:13:23;;;;;;;17.05;6.03;;;9.90;99.90;;;;;;5033708;28;20093;-43
2024/02/02 11:16:12;;;;;;;15.65;7.18;;;9.90;99.90;;;;;;5028284;28;20061;-40
2024/02/02 11:19:08;;;;;;;16.60;6.25;;;9.80;99.90;;;;;;5029902;28;20429;-43
2024/02/02 11:22:00;;;;;;;16.67;7.03;;;9.60;99.90;;;;;;5033538;28;20048;-40
2024/02/02 11:24:59;;;;;;;18.95;6.85;;;9.60;99.90;;;;;;5033043;28;20507;-42
2024/02/02 11:27:42;;;;;;;9.88;6.10;;;9.70;99.90;;;;;;5032141;28;20092;-41
2024/02/02 11:30:21;;;;;;;29.48;6.30;;;9.50;99.90;;;;;;5013113;28;20380;-40
2024/02/02 11:33:35;;;;;;;25.95;7.90;;;9.50;99.90;;;;;;5012993;28;20492;-42
2024/02/02 11:36:31;;;;;;;16.92;6.22;;;9.50;99.90;;;;;;4914286;29;20111;-37
2024/02/02 11:39:25;;;;;;;19.55;6.25;;;9.70;99.90;;;;;;4898314;29;20035;-41
2024/02/02 11:41:51;;;;;;;15.68;6.72;;;9.60;99.90;;;;;;4998940;28;20435;-41
2024/02/02 11:44:18;;;;;;;11.48;4.68;;;9.60;99.90;;;;;;5012746;28;20367;-41
2024/02/02 11:46:46;;;;;;;13.18;5.20;;;9.50;99.90;;;;;;5012910;28;20479;-41
2024/02/02 11:49:19;;;;;;;18.25;5.45;;;9.50;99.90;;;;;;5028583;28;20053;-40
2024/02/02 11:52:04;;;;;;;15.23;5.68;;;9.50;99.90;;;;;;5014845;28;20100;-45
2024/02/02 11:54:52;;;;;;;12.33;4.70;;;9.50;99.90;;;;;;5022413;28;20021;-40
2024/02/02 11:57:20;;;;;;;16.45;5.50;;;9.50;99.90;;;;;;5034940;28;20263;-41
2024/02/02 11:59:50;;;;;;;18.92;5.68;;;9.60;99.90;;;;;;5050706;28;20037;-39
2024/02/02 12:02:15;;;;;;;13.07;5.22;;;9.60;99.90;;;;;;5028009;28;20063;-43
2024/02/02 12:04:51;;;;;;;11.98;4.45;;;9.60;99.90;;;;;;5019039;28;20387;-43
2024/02/02 12:07:27;;;;;;;13.48;5.80;;;9.60;99.90;;;;;;5032187;28;20108;-43
2024/02/02 12:10:00;;;;;;;10.60;4.88;;;9.50;99.90;;;;;;5031926;28;20022;-42
2024/02/02 12:12:52;;;;;;;12.77;4.85;;;9.60;99.90;;;;;;5031968;28;20173;-48
2024/02/02 12:15:19;;;;;;;14.27;4.45;;;9.60;99.90;;;;;;5014999;28;20026;-43
2024/02/02 12:17:44;;;;;;;13.15;4.97;;;9.70;99.90;;;;;;5030366;28;20021;-39
2024/02/02 12:20:17;;;;;;;16.42;4.70;;;9.70;99.90;;;;;;5031905;28;20060;-42
2024/02/02 12:22:42;;;;;;;15.65;5.20;;;9.70;99.90;;;;;;5025203;28;20407;-45
2024/02/02 12:25:09;;;;;;;10.93;4.35;;;9.70;99.90;;;;;;5012072;28;20032;-46
2024/02/02 12:27:36;;;;;;;10.43;4.93;;;9.80;99.90;;;;;;5011953;28;20026;-45
2024/02/02 12:30:03;;;;;;;14.07;4.55;;;9.90;99.90;;;;;;5012080;28;20022;-44
2024/02/02 12:32:28;;;;;;;13.98;5.60;;;9.90;99.90;;;;;;5031152;28;20037;-39
2024/02/02 12:34:54;;;;;;;12.30;5.07;;;9.80;99.90;;;;;;5031645;28;20482;-41
2024/02/02 12:37:20;;;;;;;10.98;4.38;;;9.90;99.90;;;;;;5032358;28;20075;-41
2024/02/02 12:39:49;;;;;;;8.27;4.63;;;9.90;99.90;;;;;;5031872;28;20032;-45
2024/02/02 12:42:15;;;;;;;10.80;4.10;;;10.00;99.90;;;;;;5031460;28;20490;-42
2024/02/02 12:44:41;;;;;;;16.48;5.07;;;10.00;99.90;;;;;;5031138;28;20044;-45
2024/02/02 12:47:07;;;;;;;7.22;4.40;;;10.10;99.90;;;;;;5031595;28;20102;-43
2024/02/02 12:49:36;;;;;;;12.80;4.38;;;10.10;99.90;;;;;;5031392;28;20156;-43
2024/02/02 12:52:03;;;;;;;12.90;3.70;;;10.20;99.90;;;;;;5029717;28;20022;-43
2024/02/02 12:54:29;;;;;;;11.20;4.03;;;10.20;99.90;;;;;;5013991;28;20049;-42
2024/02/02 12:56:54;;;;;;;8.38;3.38;;;10.20;99.90;;;;;;5011699;28;20022;-42
2024/02/02 12:59:20;;;;;;;7.97;3.28;;;10.20;99.90;;;;;;5011685;28;20109;-42
2024/02/02 13:01:47;;;;;;;12.60;3.33;;;10.20;99.90;;;;;;5011477;28;20034;-49